createdAt,value
2023-05-14T00:01:11.453Z,33.70
2023-05-14T00:04:15.622Z,33.76
2023-05-14T00:07:18.466Z,33.55
2023-05-14T00:10:22.163Z,33.61
2023-05-14T00:13:25.131Z,33.91
2023-05-14T00:16:27.976Z,33.90
2023-05-14T00:19:32.173Z,33.89
2023-05-14T00:22:34.962Z,33.76
2023-05-14T00:25:37.711Z,34.06
2023-05-14T00:28:40.528Z,33.79
2023-05-14T00:31:43.401Z,33.76
2023-05-14T00:34:47.681Z,34.21
2023-05-14T00:37:50.412Z,33.74
2023-05-14T00:40:53.204Z,33.82
2023-05-14T00:43:55.997Z,33.83
2023-05-14T00:47:00.297Z,34.09
2023-05-14T00:50:05.315Z,33.97
2023-05-14T00:53:10.436Z,33.99
2023-05-14T00:56:13.315Z,33.86
2023-05-14T00:59:16.097Z,33.87
2023-05-14T01:02:18.893Z,34.13
2023-05-14T01:05:24.650Z,34.23
2023-05-14T01:08:32.836Z,33.89
2023-05-14T01:11:41.250Z,33.77
2023-05-14T01:14:47.600Z,33.92
2023-05-14T01:17:54.839Z,33.76
2023-05-14T01:20:59.079Z,33.67
2023-05-14T01:24:03.153Z,33.71
2023-05-14T01:27:08.519Z,33.96
2023-05-14T01:30:15.270Z,33.62
2023-05-14T01:33:19.224Z,33.96
2023-05-14T01:36:22.296Z,33.78
2023-05-14T01:39:27.872Z,33.83
2023-05-14T01:42:30.875Z,33.61
2023-05-14T01:45:35.960Z,33.97
2023-05-14T01:48:38.901Z,33.74
2023-05-14T01:51:41.850Z,33.93
2023-05-14T01:54:46.001Z,33.73
2023-05-14T01:57:48.726Z,33.56
2023-05-14T02:00:51.522Z,33.80
2023-05-14T02:03:54.403Z,33.83
2023-05-14T02:06:57.225Z,34.00
2023-05-14T02:10:01.396Z,33.80
2023-05-14T02:13:04.259Z,33.70
2023-05-14T02:16:07.447Z,33.74
2023-05-14T02:19:10.334Z,33.61
2023-05-14T02:22:13.189Z,33.65
2023-05-14T02:25:17.385Z,33.79
2023-05-14T02:28:20.182Z,35.63
2023-05-14T02:31:23.003Z,33.89
2023-05-14T02:34:26.518Z,33.98
2023-05-14T02:37:29.285Z,33.87
2023-05-14T02:40:33.492Z,33.71
2023-05-14T02:43:36.263Z,33.43
2023-05-14T02:46:39.107Z,33.56
2023-05-14T02:49:41.927Z,33.57
2023-05-14T02:52:44.846Z,33.47
2023-05-14T02:55:48.986Z,33.50
2023-05-14T02:58:51.776Z,33.56
2023-05-14T03:01:54.590Z,33.53
2023-05-14T03:04:57.862Z,33.46
2023-05-14T03:08:01.098Z,33.59
2023-05-14T03:11:05.319Z,33.69
2023-05-14T03:14:08.050Z,33.49
2023-05-14T03:17:10.915Z,33.45
2023-05-14T03:20:14.165Z,33.30
2023-05-14T03:23:17.996Z,33.42
2023-05-14T03:26:22.130Z,33.46
2023-05-14T03:29:24.961Z,33.62
2023-05-14T03:32:27.847Z,33.54
2023-05-14T03:35:30.623Z,33.47
2023-05-14T03:38:33.445Z,33.43
2023-05-14T03:41:37.815Z,33.54
2023-05-14T03:44:40.803Z,33.52
2023-05-14T03:47:43.627Z,33.05
2023-05-14T03:50:46.422Z,33.62
2023-05-14T03:53:49.221Z,33.35
2023-05-14T03:56:53.376Z,33.30
2023-05-14T03:59:56.126Z,33.26
2023-05-14T04:02:58.976Z,33.55
2023-05-14T04:06:02.752Z,33.50
2023-05-14T04:09:05.459Z,33.54
2023-05-14T04:12:10.109Z,33.39
2023-05-14T04:15:13.115Z,33.27
2023-05-14T04:18:16.057Z,33.17
2023-05-14T04:21:18.943Z,33.53
2023-05-14T04:24:21.689Z,33.14
2023-05-14T04:27:25.906Z,33.27
2023-05-14T04:30:28.658Z,33.18
2023-05-14T04:33:31.472Z,33.33
2023-05-14T04:36:34.278Z,33.19
2023-05-14T04:39:38.009Z,33.12
2023-05-14T04:42:42.240Z,33.29
2023-05-14T04:45:45.031Z,33.29
2023-05-14T04:48:48.430Z,33.12
2023-05-14T04:51:51.262Z,33.31
2023-05-14T04:54:54.193Z,33.04
2023-05-14T04:57:58.269Z,33.40
2023-05-14T05:01:01.762Z,33.08
2023-05-14T05:04:04.630Z,33.37
2023-05-14T05:07:07.424Z,33.33
2023-05-14T05:10:10.609Z,33.29
2023-05-14T05:13:17.037Z,33.03
2023-05-14T05:16:19.863Z,33.62
2023-05-14T05:19:32.166Z,32.97
2023-05-14T05:22:42.762Z,33.50
2023-05-14T05:25:45.598Z,33.32
2023-05-14T05:28:49.766Z,32.90
2023-05-14T05:31:52.618Z,32.86
2023-05-14T05:34:55.522Z,32.95
2023-05-14T05:38:01.125Z,33.09
2023-05-14T05:41:04.483Z,32.86
2023-05-14T05:44:08.731Z,32.86
2023-05-14T05:47:11.510Z,32.91
2023-05-14T05:50:15.114Z,32.50
2023-05-14T05:53:17.937Z,32.53
2023-05-14T05:56:21.227Z,32.79
2023-05-14T05:59:25.465Z,32.53
2023-05-14T06:02:28.287Z,32.60
2023-05-14T06:05:31.243Z,32.04
2023-05-14T06:08:34.055Z,32.48
2023-05-14T06:11:36.810Z,32.56
2023-05-14T06:14:40.968Z,32.82
2023-05-14T06:17:43.731Z,32.81
2023-05-14T06:20:46.549Z,32.81
2023-05-14T06:23:49.297Z,32.16
2023-05-14T06:26:52.038Z,32.34
2023-05-14T06:29:56.345Z,32.55
2023-05-14T06:32:59.143Z,32.25
2023-05-14T06:36:02.292Z,32.26
2023-05-14T06:39:05.089Z,32.74
2023-05-14T06:42:07.992Z,32.24
2023-05-14T06:45:12.696Z,32.20
2023-05-14T06:48:15.614Z,32.82
2023-05-14T06:51:18.525Z,32.64
2023-05-14T06:54:21.580Z,32.57
2023-05-14T06:57:24.378Z,32.68
2023-05-14T07:00:28.883Z,32.57
2023-05-14T07:03:31.672Z,32.63
2023-05-14T07:06:34.488Z,31.83
2023-05-14T07:09:37.273Z,31.98
2023-05-14T07:12:40.014Z,31.92
2023-05-14T07:15:44.199Z,32.04
2023-05-14T07:18:46.926Z,32.29
2023-05-14T07:21:49.731Z,32.46
2023-05-14T07:24:52.470Z,32.44
2023-05-14T07:27:55.921Z,32.40
2023-05-14T07:31:00.275Z,32.00
2023-05-14T07:34:03.130Z,32.26
2023-05-14T07:37:06.152Z,32.27
2023-05-14T07:40:09.528Z,32.22
2023-05-14T07:43:12.340Z,32.54
2023-05-14T07:46:17.765Z,32.42
2023-05-14T07:49:20.536Z,32.52
2023-05-14T07:52:23.353Z,32.37
2023-05-14T07:55:26.141Z,32.94
2023-05-14T07:58:29.037Z,33.14
2023-05-14T08:01:33.280Z,32.74
2023-05-14T08:04:36.258Z,33.25
2023-05-14T08:07:39.256Z,32.35
2023-05-14T08:10:42.103Z,31.44
2023-05-14T08:13:45.032Z,31.30
2023-05-14T08:16:49.234Z,32.44
2023-05-14T08:19:51.999Z,32.61
2023-05-14T08:22:57.549Z,32.54
2023-05-14T08:26:00.453Z,31.92
2023-05-14T08:29:03.357Z,32.92
2023-05-14T08:32:19.283Z,31.76
2023-05-14T08:35:25.982Z,32.22
2023-05-14T08:38:28.829Z,32.62
2023-05-14T08:41:31.752Z,32.20
2023-05-14T08:44:37.862Z,33.55
2023-05-14T08:47:42.116Z,34.29
2023-05-14T08:50:45.294Z,33.96
2023-05-14T08:53:49.320Z,33.64
2023-05-14T08:56:52.785Z,33.53
2023-05-14T08:59:56.054Z,33.79
2023-05-14T09:03:01.055Z,31.22
2023-05-14T09:06:04.285Z,29.73
2023-05-14T09:09:07.222Z,30.39
2023-05-14T09:12:11.184Z,29.92
2023-05-14T09:15:14.245Z,29.79
2023-05-14T09:18:18.615Z,30.44
2023-05-14T09:21:22.730Z,30.30
2023-05-14T09:24:27.140Z,30.63
2023-05-14T09:27:30.922Z,28.45
2023-05-14T09:30:35.042Z,29.84
2023-05-14T09:33:39.245Z,31.81
2023-05-14T09:36:42.061Z,31.38
2023-05-14T09:39:44.932Z,31.48
2023-05-14T09:42:48.395Z,31.81
2023-05-14T09:45:51.431Z,31.78
2023-05-14T09:48:56.792Z,31.91
2023-05-14T09:51:59.629Z,32.11
2023-05-14T09:55:02.646Z,32.17
2023-05-14T09:58:06.090Z,32.14
2023-05-14T10:01:09.372Z,32.41
2023-05-14T10:04:13.918Z,32.26
2023-05-14T10:07:18.656Z,32.22
2023-05-14T10:10:22.547Z,32.79
2023-05-14T10:13:29.961Z,32.40
2023-05-14T10:16:35.109Z,32.41
2023-05-14T10:19:41.153Z,32.42
2023-05-14T10:22:44.006Z,32.76
2023-05-14T10:25:47.053Z,32.67
2023-05-14T10:28:50.053Z,32.55
2023-05-14T10:31:54.853Z,32.49
2023-05-14T10:34:59.680Z,32.57
2023-05-14T10:38:02.468Z,32.53
2023-05-14T10:41:06.111Z,32.40
2023-05-14T10:44:10.046Z,32.25
2023-05-14T10:47:13.000Z,31.80
2023-05-14T10:50:17.787Z,31.83
2023-05-14T10:53:21.237Z,32.16
2023-05-14T10:56:24.051Z,32.21
2023-05-14T10:59:28.351Z,32.01
2023-05-14T11:02:32.258Z,31.52
2023-05-14T11:05:37.655Z,31.35
2023-05-14T11:08:41.099Z,30.02
2023-05-14T11:11:44.019Z,31.07
2023-05-14T11:14:47.952Z,30.79
2023-05-14T11:17:52.361Z,30.76
2023-05-14T11:20:59.074Z,31.18
2023-05-14T11:24:01.858Z,31.05
2023-05-14T11:27:05.827Z,31.29
2023-05-14T11:30:13.540Z,31.86
2023-05-14T11:33:17.059Z,31.60
2023-05-14T11:36:21.565Z,31.49
2023-05-14T11:39:24.392Z,32.01
2023-05-14T11:42:27.254Z,31.98
2023-05-14T11:45:30.431Z,31.98
2023-05-14T11:48:33.299Z,31.70
2023-05-14T11:51:37.426Z,32.32
2023-05-14T11:54:40.360Z,33.10
2023-05-14T11:57:43.305Z,32.95
2023-05-14T12:00:46.083Z,33.12
2023-05-14T12:03:49.012Z,33.46
2023-05-14T12:06:53.844Z,33.93
2023-05-14T12:10:01.523Z,33.88
2023-05-14T12:13:08.070Z,33.92
2023-05-14T12:16:11.050Z,33.56
2023-05-14T12:19:15.774Z,33.56
2023-05-14T12:22:21.139Z,33.72
2023-05-14T12:25:26.734Z,33.44
2023-05-14T12:28:29.720Z,33.48
2023-05-14T12:31:32.952Z,33.54
2023-05-14T12:34:37.385Z,33.35
2023-05-14T12:41:15.799Z,32.92
2023-05-14T12:44:18.906Z,32.90
2023-05-14T12:47:21.824Z,33.16
2023-05-14T12:50:24.962Z,33.15
2023-05-14T12:53:28.056Z,33.02
2023-05-14T12:56:32.237Z,33.08
2023-05-14T12:59:35.020Z,33.42
2023-05-14T13:02:43.054Z,32.93
2023-05-14T13:05:46.548Z,33.16
2023-05-14T13:08:49.327Z,33.36
2023-05-14T13:11:53.474Z,33.13
2023-05-14T13:14:56.238Z,33.27
2023-05-14T13:17:59.070Z,32.93
2023-05-14T13:21:04.339Z,33.01
2023-05-14T13:24:07.373Z,32.93
2023-05-14T13:27:11.506Z,33.14
2023-05-14T13:30:14.494Z,32.79
2023-05-14T13:33:20.121Z,33.14
2023-05-14T13:36:22.939Z,33.07
2023-05-14T13:39:27.337Z,32.71
2023-05-14T13:42:31.638Z,33.20
2023-05-14T13:45:34.444Z,33.15
2023-05-14T13:48:37.499Z,33.20
2023-05-14T13:51:40.309Z,32.91
2023-05-14T13:54:43.122Z,32.67
2023-05-14T13:57:47.325Z,32.61
2023-05-14T14:00:50.176Z,32.94
2023-05-14T14:03:53.025Z,32.66
2023-05-14T14:06:55.984Z,32.49
2023-05-14T14:10:01.501Z,32.70
2023-05-14T14:13:05.580Z,32.64
2023-05-14T14:16:08.461Z,32.36
2023-05-14T14:19:11.363Z,32.63
2023-05-14T14:22:17.317Z,32.61
2023-05-14T14:25:20.063Z,32.95
2023-05-14T14:28:24.264Z,32.83
2023-05-14T14:31:27.008Z,33.00
2023-05-14T14:34:29.854Z,32.89
2023-05-14T14:37:32.639Z,32.27
2023-05-14T14:40:35.683Z,34.59
2023-05-14T14:43:40.362Z,33.87
2023-05-14T14:46:43.958Z,34.70
2023-05-14T14:49:46.691Z,34.64
2023-05-14T14:52:49.483Z,33.95
2023-05-14T14:55:52.570Z,33.81
2023-05-14T14:58:56.701Z,34.23
2023-05-14T15:01:59.625Z,33.26
2023-05-14T15:05:02.388Z,33.50
2023-05-14T15:08:05.530Z,33.28
2023-05-14T15:11:08.714Z,33.48
2023-05-14T15:14:13.257Z,33.42
2023-05-14T15:17:16.118Z,33.21
2023-05-14T15:20:19.123Z,33.07
2023-05-14T15:23:21.828Z,32.76
2023-05-14T15:26:24.672Z,32.55
2023-05-14T15:29:28.800Z,33.15
2023-05-14T15:32:31.784Z,33.01
2023-05-14T15:35:34.558Z,32.91
2023-05-14T15:38:37.260Z,32.59
2023-05-14T15:41:40.063Z,32.55
2023-05-14T15:44:44.144Z,32.48
2023-05-14T15:47:46.983Z,32.46
2023-05-14T15:50:50.111Z,32.24
2023-05-14T15:53:53.826Z,31.96
2023-05-14T15:56:56.798Z,31.68
2023-05-14T16:00:00.976Z,31.83
2023-05-14T16:03:03.804Z,32.17
2023-05-14T16:06:06.931Z,31.50
2023-05-14T16:09:09.702Z,32.01
2023-05-14T16:12:12.558Z,32.15
2023-05-14T16:15:16.827Z,31.89
2023-05-14T16:18:20.654Z,32.27
2023-05-14T16:21:23.413Z,31.44
2023-05-14T16:24:27.777Z,30.55
2023-05-14T16:27:30.531Z,30.23
2023-05-14T16:30:34.750Z,30.75
2023-05-14T16:33:38.446Z,31.09
2023-05-14T16:36:41.271Z,31.37
2023-05-14T16:39:44.212Z,31.97
2023-05-14T16:42:49.158Z,31.60
2023-05-14T16:45:53.728Z,31.88
2023-05-14T16:48:56.826Z,32.71
2023-05-14T16:51:59.609Z,32.73
2023-05-14T16:55:02.347Z,33.08
2023-05-14T16:58:05.162Z,33.87
2023-05-14T17:01:10.074Z,33.50
2023-05-14T17:04:13.144Z,34.57
2023-05-14T17:07:15.936Z,34.81
2023-05-14T17:10:18.862Z,34.80
2023-05-14T17:13:21.626Z,34.87
2023-05-14T17:16:26.168Z,35.06
2023-05-14T17:19:29.078Z,35.30
2023-05-14T17:22:31.869Z,35.50
2023-05-14T17:25:34.677Z,35.75
2023-05-14T17:28:37.473Z,35.74
2023-05-14T17:31:41.578Z,35.96
2023-05-14T17:34:44.342Z,36.09
2023-05-14T17:37:47.171Z,36.35
2023-05-14T17:40:50.060Z,35.66
2023-05-14T17:43:53.181Z,35.76
2023-05-14T17:46:57.494Z,36.04
2023-05-14T17:50:00.340Z,35.85
2023-05-14T17:53:03.104Z,36.46
2023-05-14T17:56:06.390Z,36.36
2023-05-14T17:59:09.211Z,36.37
2023-05-14T18:02:15.889Z,36.37
2023-05-14T18:05:20.746Z,36.26
2023-05-14T18:08:25.642Z,36.58
2023-05-14T18:11:36.304Z,36.27
2023-05-14T18:14:39.114Z,36.51
2023-05-14T18:17:43.335Z,36.58
2023-05-14T18:20:46.113Z,36.71
2023-05-14T18:23:48.946Z,36.17
2023-05-14T18:26:51.758Z,36.71
2023-05-14T18:29:54.711Z,36.73
2023-05-14T18:32:59.763Z,36.65
2023-05-14T18:36:03.582Z,37.03
2023-05-14T18:39:06.303Z,37.06
2023-05-14T18:42:10.053Z,37.07
2023-05-14T18:45:13.969Z,37.18
2023-05-14T18:48:18.132Z,36.99
2023-05-14T18:51:20.963Z,37.01
2023-05-14T18:54:23.762Z,36.96
2023-05-14T18:57:29.179Z,36.17
2023-05-14T19:00:31.985Z,36.63
2023-05-14T19:03:36.179Z,36.87
2023-05-14T19:06:40.345Z,37.13
2023-05-14T19:09:43.086Z,37.42
2023-05-14T19:12:47.258Z,37.45
2023-05-14T19:15:50.038Z,37.29
2023-05-14T19:18:54.576Z,37.42
2023-05-14T19:21:57.443Z,37.19
2023-05-14T19:25:00.286Z,37.18
2023-05-14T19:28:03.763Z,37.13
2023-05-14T19:31:06.604Z,37.01
2023-05-14T19:34:11.293Z,37.29
2023-05-14T19:37:14.167Z,37.54
2023-05-14T19:40:17.013Z,37.82
2023-05-14T19:43:20.033Z,37.91
2023-05-14T19:46:22.827Z,37.45
2023-05-14T19:49:26.934Z,37.33
2023-05-14T19:52:29.704Z,37.78
2023-05-14T19:55:32.469Z,38.57
2023-05-14T19:58:35.288Z,38.45
2023-05-14T20:01:39.095Z,38.15
2023-05-14T20:04:43.334Z,38.15
2023-05-14T20:07:49.012Z,38.74
2023-05-14T20:10:51.839Z,38.47
2023-05-14T20:13:54.628Z,38.48
2023-05-14T20:16:58.051Z,38.48
2023-05-14T20:20:02.560Z,38.37
2023-05-14T20:23:05.360Z,38.84
2023-05-14T20:26:08.160Z,38.48
2023-05-14T20:29:14.376Z,38.56
2023-05-14T20:32:17.183Z,38.52
2023-05-14T20:35:21.371Z,38.38
2023-05-14T20:38:25.751Z,38.39
2023-05-14T20:41:28.550Z,38.59
2023-05-14T20:44:31.406Z,38.35
2023-05-14T20:47:35.775Z,37.90
2023-05-14T20:50:40.008Z,37.68
2023-05-14T20:53:42.881Z,37.99
2023-05-14T20:56:45.720Z,38.09
2023-05-14T20:59:49.084Z,38.01
2023-05-14T21:02:52.102Z,37.97
2023-05-14T21:05:57.093Z,37.77
2023-05-14T21:08:59.850Z,37.41
2023-05-14T21:12:02.627Z,37.27
2023-05-14T21:15:05.832Z,37.65
2023-05-14T21:18:08.675Z,35.17
2023-05-14T21:21:12.900Z,34.85
2023-05-14T21:24:16.839Z,34.63
2023-05-14T21:27:19.661Z,34.83
2023-05-14T21:30:22.807Z,34.83
2023-05-14T21:33:25.734Z,34.79
2023-05-14T21:36:30.110Z,34.83
2023-05-14T21:39:33.156Z,34.63
2023-05-14T21:42:36.025Z,34.55
2023-05-14T21:45:38.831Z,34.42
2023-05-14T21:48:41.653Z,34.47
2023-05-14T21:51:45.880Z,34.45
2023-05-14T21:54:48.730Z,34.67
2023-05-14T21:57:51.498Z,34.46
2023-05-14T22:00:54.321Z,34.53
2023-05-14T22:03:58.049Z,34.38
2023-05-14T22:07:02.782Z,35.10
2023-05-14T22:10:05.840Z,34.70
2023-05-14T22:13:08.612Z,35.12
2023-05-14T22:16:13.761Z,34.83
2023-05-14T22:19:17.587Z,34.78
2023-05-14T22:22:21.869Z,35.07
2023-05-14T22:25:24.963Z,35.09
2023-05-14T22:28:27.962Z,34.89
2023-05-14T22:31:30.798Z,34.76
2023-05-14T22:34:33.522Z,34.96
2023-05-14T22:37:37.730Z,34.89
2023-05-14T22:40:40.566Z,34.77
2023-05-14T22:43:43.353Z,35.11
2023-05-14T22:46:46.148Z,34.85
2023-05-14T22:49:49.017Z,35.00
2023-05-14T22:52:53.168Z,35.00
2023-05-14T22:55:55.924Z,34.98
2023-05-14T22:59:00.355Z,34.75
2023-05-14T23:02:03.252Z,34.99
2023-05-14T23:05:06.409Z,35.16
2023-05-14T23:08:10.600Z,34.98
2023-05-14T23:11:13.347Z,35.12
2023-05-14T23:14:17.919Z,34.90
2023-05-14T23:17:20.784Z,34.60
2023-05-14T23:20:23.547Z,35.07
2023-05-14T23:23:27.759Z,34.95
2023-05-14T23:26:30.524Z,34.67
2023-05-14T23:29:33.337Z,34.92
2023-05-14T23:32:36.151Z,34.64
2023-05-14T23:35:39.327Z,35.01
2023-05-14T23:38:44.583Z,35.04
2023-05-14T23:41:48.395Z,34.97
2023-05-14T23:44:51.193Z,37.62
2023-05-14T23:47:54.592Z,38.42
2023-05-14T23:50:57.358Z,38.82
2023-05-14T23:54:01.496Z,38.89
2023-05-14T23:57:04.360Z,38.80
